sensor_id;sensor_type;location;lat;lon;timestamp;P1;durP1;ratioP1;P2;durP2;ratioP2
70545;SDS011;58098;51.680;5.134;2023-04-15T00:02:18;10.80;;;5.30;;
70545;SDS011;58098;51.680;5.134;2023-04-15T00:04:47;11.03;;;5.70;;
70545;SDS011;58098;51.680;5.134;2023-04-15T00:07:12;11.48;;;5.75;;
70545;SDS011;58098;51.680;5.134;2023-04-15T00:09:40;10.20;;;6.30;;
70545;SDS011;58098;51.680;5.134;2023-04-15T00:12:07;13.10;;;6.35;;
70545;SDS011;58098;51.680;5.134;2023-04-15T00:14:33;9.30;;;5.67;;
70545;SDS011;58098;51.680;5.134;2023-04-15T00:17:00;11.95;;;5.57;;
70545;SDS011;58098;51.680;5.134;2023-04-15T00:19:26;12.00;;;6.10;;
70545;SDS011;58098;51.680;5.134;2023-04-15T00:21:51;10.85;;;5.65;;
70545;SDS011;58098;51.680;5.134;2023-04-15T00:24:16;11.77;;;6.07;;
70545;SDS011;58098;51.680;5.134;2023-04-15T00:26:42;12.53;;;5.50;;
70545;SDS011;58098;51.680;5.134;2023-04-15T00:29:07;10.53;;;5.67;;
70545;SDS011;58098;51.680;5.134;2023-04-15T00:31:32;10.87;;;5.93;;
70545;SDS011;58098;51.680;5.134;2023-04-15T00:33:58;13.57;;;5.57;;
70545;SDS011;58098;51.680;5.134;2023-04-15T00:36:23;13.07;;;6.13;;
70545;SDS011;58098;51.680;5.134;2023-04-15T00:38:49;16.17;;;6.33;;
70545;SDS011;58098;51.680;5.134;2023-04-15T00:41:15;9.47;;;5.80;;
70545;SDS011;58098;51.680;5.134;2023-04-15T00:43:40;15.43;;;6.28;;
70545;SDS011;58098;51.680;5.134;2023-04-15T00:46:07;13.80;;;5.78;;
70545;SDS011;58098;51.680;5.134;2023-04-15T00:48:33;11.03;;;5.83;;
70545;SDS011;58098;51.680;5.134;2023-04-15T00:50:59;12.98;;;6.13;;
70545;SDS011;58098;51.680;5.134;2023-04-15T00:53:25;12.77;;;5.90;;
70545;SDS011;58098;51.680;5.134;2023-04-15T00:55:50;17.47;;;6.30;;
70545;SDS011;58098;51.680;5.134;2023-04-15T00:58:15;10.50;;;6.10;;
70545;SDS011;58098;51.680;5.134;2023-04-15T01:00:41;10.77;;;6.13;;
70545;SDS011;58098;51.680;5.134;2023-04-15T01:03:07;12.52;;;6.13;;
70545;SDS011;58098;51.680;5.134;2023-04-15T01:05:33;12.40;;;6.27;;
70545;SDS011;58098;51.680;5.134;2023-04-15T01:07:58;15.77;;;6.60;;
70545;SDS011;58098;51.680;5.134;2023-04-15T01:10:24;13.73;;;6.33;;
70545;SDS011;58098;51.680;5.134;2023-04-15T01:12:49;14.80;;;6.57;;
70545;SDS011;58098;51.680;5.134;2023-04-15T01:15:15;9.65;;;6.13;;
70545;SDS011;58098;51.680;5.134;2023-04-15T01:17:40;11.93;;;6.50;;
70545;SDS011;58098;51.680;5.134;2023-04-15T01:20:06;12.68;;;7.00;;
70545;SDS011;58098;51.680;5.134;2023-04-15T01:22:35;11.82;;;6.97;;
70545;SDS011;58098;51.680;5.134;2023-04-15T01:25:03;11.73;;;6.67;;
70545;SDS011;58098;51.680;5.134;2023-04-15T01:27:33;11.63;;;6.13;;
70545;SDS011;58098;51.680;5.134;2023-04-15T01:30:00;14.23;;;6.47;;
70545;SDS011;58098;51.680;5.134;2023-04-15T01:32:26;11.18;;;6.70;;
70545;SDS011;58098;51.680;5.134;2023-04-15T01:34:52;11.75;;;6.55;;
70545;SDS011;58098;51.680;5.134;2023-04-15T01:37:17;9.33;;;5.73;;
70545;SDS011;58098;51.680;5.134;2023-04-15T01:39:42;10.53;;;6.60;;
70545;SDS011;58098;51.680;5.134;2023-04-15T01:42:08;15.10;;;6.82;;
70545;SDS011;58098;51.680;5.134;2023-04-15T01:44:34;12.87;;;6.90;;
70545;SDS011;58098;51.680;5.134;2023-04-15T01:46:59;12.83;;;6.57;;
70545;SDS011;58098;51.680;5.134;2023-04-15T01:49:24;11.67;;;6.87;;
70545;SDS011;58098;51.680;5.134;2023-04-15T01:51:50;12.20;;;7.53;;
70545;SDS011;58098;51.680;5.134;2023-04-15T01:54:15;12.90;;;8.00;;
70545;SDS011;58098;51.680;5.134;2023-04-15T01:56:40;12.30;;;6.83;;
70545;SDS011;58098;51.680;5.134;2023-04-15T01:59:06;18.37;;;7.70;;
70545;SDS011;58098;51.680;5.134;2023-04-15T02:01:31;12.20;;;7.67;;
70545;SDS011;58098;51.680;5.134;2023-04-15T02:03:57;13.40;;;7.53;;
70545;SDS011;58098;51.680;5.134;2023-04-15T02:06:22;14.80;;;7.20;;
70545;SDS011;58098;51.680;5.134;2023-04-15T02:08:48;13.77;;;7.55;;
70545;SDS011;58098;51.680;5.134;2023-04-15T02:11:13;12.37;;;7.77;;
70545;SDS011;58098;51.680;5.134;2023-04-15T02:13:39;16.00;;;7.20;;
70545;SDS011;58098;51.680;5.134;2023-04-15T02:16:13;15.37;;;7.27;;
70545;SDS011;58098;51.680;5.134;2023-04-15T02:18:40;14.40;;;8.13;;
70545;SDS011;58098;51.680;5.134;2023-04-15T02:21:05;11.50;;;7.33;;
70545;SDS011;58098;51.680;5.134;2023-04-15T02:23:31;13.87;;;7.47;;
70545;SDS011;58098;51.680;5.134;2023-04-15T02:25:56;14.33;;;7.47;;
70545;SDS011;58098;51.680;5.134;2023-04-15T02:28:21;13.00;;;7.50;;
70545;SDS011;58098;51.680;5.134;2023-04-15T02:30:50;15.07;;;7.70;;
70545;SDS011;58098;51.680;5.134;2023-04-15T02:33:17;13.13;;;7.90;;
70545;SDS011;58098;51.680;5.134;2023-04-15T02:35:42;10.80;;;6.87;;
70545;SDS011;58098;51.680;5.134;2023-04-15T02:38:09;13.13;;;7.70;;
70545;SDS011;58098;51.680;5.134;2023-04-15T02:40:35;12.73;;;8.20;;
70545;SDS011;58098;51.680;5.134;2023-04-15T02:43:01;13.48;;;8.70;;
70545;SDS011;58098;51.680;5.134;2023-04-15T02:45:26;13.37;;;8.13;;
70545;SDS011;58098;51.680;5.134;2023-04-15T02:47:52;14.73;;;8.00;;
70545;SDS011;58098;51.680;5.134;2023-04-15T02:50:17;17.30;;;8.93;;
70545;SDS011;58098;51.680;5.134;2023-04-15T02:52:43;13.53;;;8.63;;
70545;SDS011;58098;51.680;5.134;2023-04-15T02:55:08;15.87;;;8.20;;
70545;SDS011;58098;51.680;5.134;2023-04-15T02:57:34;12.35;;;8.93;;
70545;SDS011;58098;51.680;5.134;2023-04-15T03:00:02;16.23;;;8.60;;
70545;SDS011;58098;51.680;5.134;2023-04-15T03:02:32;17.52;;;8.95;;
70545;SDS011;58098;51.680;5.134;2023-04-15T03:04:59;16.17;;;8.95;;
70545;SDS011;58098;51.680;5.134;2023-04-15T03:07:24;14.93;;;8.70;;
70545;SDS011;58098;51.680;5.134;2023-04-15T03:09:49;12.80;;;8.77;;
70545;SDS011;58098;51.680;5.134;2023-04-15T03:12:15;13.60;;;9.30;;
70545;SDS011;58098;51.680;5.134;2023-04-15T03:14:40;13.27;;;9.27;;
70545;SDS011;58098;51.680;5.134;2023-04-15T03:17:06;13.83;;;9.00;;
70545;SDS011;58098;51.680;5.134;2023-04-15T03:19:31;14.48;;;9.90;;
70545;SDS011;58098;51.680;5.134;2023-04-15T03:21:57;13.53;;;9.27;;
70545;SDS011;58098;51.680;5.134;2023-04-15T03:24:22;21.63;;;9.40;;
70545;SDS011;58098;51.680;5.134;2023-04-15T03:26:48;15.95;;;9.68;;
70545;SDS011;58098;51.680;5.134;2023-04-15T03:29:14;20.73;;;9.77;;
70545;SDS011;58098;51.680;5.134;2023-04-15T03:31:40;13.63;;;8.93;;
70545;SDS011;58098;51.680;5.134;2023-04-15T03:34:05;15.25;;;9.60;;
70545;SDS011;58098;51.680;5.134;2023-04-15T03:36:31;14.13;;;9.40;;
70545;SDS011;58098;51.680;5.134;2023-04-15T03:38:59;16.90;;;10.55;;
70545;SDS011;58098;51.680;5.134;2023-04-15T03:41:26;15.63;;;9.75;;
70545;SDS011;58098;51.680;5.134;2023-04-15T03:43:52;16.60;;;10.80;;
70545;SDS011;58098;51.680;5.134;2023-04-15T03:46:17;16.33;;;9.77;;
70545;SDS011;58098;51.680;5.134;2023-04-15T03:48:43;18.00;;;9.57;;
70545;SDS011;58098;51.680;5.134;2023-04-15T03:51:08;17.87;;;10.17;;
70545;SDS011;58098;51.680;5.134;2023-04-15T03:53:33;14.47;;;9.30;;
70545;SDS011;58098;51.680;5.134;2023-04-15T03:55:59;14.43;;;9.55;;
70545;SDS011;58098;51.680;5.134;2023-04-15T03:58:24;17.13;;;9.20;;
70545;SDS011;58098;51.680;5.134;2023-04-15T04:00:50;16.53;;;9.47;;
70545;SDS011;58098;51.680;5.134;2023-04-15T04:03:15;16.37;;;9.57;;
70545;SDS011;58098;51.680;5.134;2023-04-15T04:05:41;17.48;;;9.43;;
70545;SDS011;58098;51.680;5.134;2023-04-15T04:08:08;18.83;;;9.90;;
70545;SDS011;58098;51.680;5.134;2023-04-15T04:10:33;14.23;;;9.40;;
70545;SDS011;58098;51.680;5.134;2023-04-15T04:12:58;20.50;;;9.73;;
70545;SDS011;58098;51.680;5.134;2023-04-15T04:15:24;13.53;;;9.47;;
70545;SDS011;58098;51.680;5.134;2023-04-15T04:17:50;15.20;;;10.13;;
70545;SDS011;58098;51.680;5.134;2023-04-15T04:20:15;14.30;;;9.65;;
70545;SDS011;58098;51.680;5.134;2023-04-15T04:22:40;14.43;;;9.90;;
70545;SDS011;58098;51.680;5.134;2023-04-15T04:25:06;15.40;;;9.47;;
70545;SDS011;58098;51.680;5.134;2023-04-15T04:27:32;16.23;;;9.98;;
70545;SDS011;58098;51.680;5.134;2023-04-15T04:29:58;14.33;;;9.60;;
70545;SDS011;58098;51.680;5.134;2023-04-15T04:32:23;15.97;;;9.73;;
70545;SDS011;58098;51.680;5.134;2023-04-15T04:34:49;15.60;;;10.57;;
70545;SDS011;58098;51.680;5.134;2023-04-15T04:37:14;19.03;;;10.03;;
70545;SDS011;58098;51.680;5.134;2023-04-15T04:39:40;14.27;;;9.60;;
70545;SDS011;58098;51.680;5.134;2023-04-15T04:42:05;16.30;;;10.23;;
70545;SDS011;58098;51.680;5.134;2023-04-15T04:44:30;17.13;;;9.57;;
70545;SDS011;58098;51.680;5.134;2023-04-15T04:46:55;18.03;;;9.43;;
70545;SDS011;58098;51.680;5.134;2023-04-15T04:49:21;16.37;;;10.00;;
70545;SDS011;58098;51.680;5.134;2023-04-15T04:51:46;15.80;;;10.33;;
70545;SDS011;58098;51.680;5.134;2023-04-15T04:54:12;17.38;;;9.60;;
70545;SDS011;58098;51.680;5.134;2023-04-15T04:56:38;17.80;;;10.37;;
70545;SDS011;58098;51.680;5.134;2023-04-15T04:59:04;15.73;;;10.23;;
70545;SDS011;58098;51.680;5.134;2023-04-15T05:01:29;15.73;;;9.68;;
70545;SDS011;58098;51.680;5.134;2023-04-15T05:03:54;15.03;;;9.33;;
70545;SDS011;58098;51.680;5.134;2023-04-15T05:06:20;13.97;;;9.67;;
70545;SDS011;58098;51.680;5.134;2023-04-15T05:08:46;18.85;;;9.52;;
70545;SDS011;58098;51.680;5.134;2023-04-15T05:11:11;17.63;;;10.37;;
70545;SDS011;58098;51.680;5.134;2023-04-15T05:13:37;14.37;;;10.23;;
70545;SDS011;58098;51.680;5.134;2023-04-15T05:16:03;13.52;;;9.05;;
70545;SDS011;58098;51.680;5.134;2023-04-15T05:18:29;16.02;;;9.88;;
70545;SDS011;58098;51.680;5.134;2023-04-15T05:20:55;18.33;;;10.17;;
70545;SDS011;58098;51.680;5.134;2023-04-15T05:23:20;15.10;;;10.17;;
70545;SDS011;58098;51.680;5.134;2023-04-15T05:25:46;13.60;;;8.73;;
70545;SDS011;58098;51.680;5.134;2023-04-15T05:28:11;16.13;;;9.87;;
70545;SDS011;58098;51.680;5.134;2023-04-15T05:30:36;15.50;;;9.70;;
70545;SDS011;58098;51.680;5.134;2023-04-15T05:33:02;17.80;;;9.73;;
70545;SDS011;58098;51.680;5.134;2023-04-15T05:35:28;19.08;;;10.13;;
70545;SDS011;58098;51.680;5.134;2023-04-15T05:37:53;17.53;;;10.47;;
70545;SDS011;58098;51.680;5.134;2023-04-15T05:40:18;15.80;;;10.43;;
70545;SDS011;58098;51.680;5.134;2023-04-15T05:42:44;16.30;;;9.37;;
70545;SDS011;58098;51.680;5.134;2023-04-15T05:45:09;17.45;;;10.13;;
70545;SDS011;58098;51.680;5.134;2023-04-15T05:47:35;15.87;;;10.43;;
70545;SDS011;58098;51.680;5.134;2023-04-15T05:50:01;17.13;;;10.07;;
70545;SDS011;58098;51.680;5.134;2023-04-15T05:52:27;15.32;;;10.18;;
70545;SDS011;58098;51.680;5.134;2023-04-15T05:54:52;17.03;;;9.23;;
70545;SDS011;58098;51.680;5.134;2023-04-15T05:57:18;15.33;;;9.90;;
70545;SDS011;58098;51.680;5.134;2023-04-15T05:59:43;14.23;;;9.57;;
70545;SDS011;58098;51.680;5.134;2023-04-15T06:02:09;16.70;;;9.77;;
70545;SDS011;58098;51.680;5.134;2023-04-15T06:04:34;14.80;;;10.37;;
70545;SDS011;58098;51.680;5.134;2023-04-15T06:06:59;15.90;;;9.60;;
70545;SDS011;58098;51.680;5.134;2023-04-15T06:09:25;14.17;;;9.83;;
70545;SDS011;58098;51.680;5.134;2023-04-15T06:11:51;18.02;;;10.38;;
70545;SDS011;58098;51.680;5.134;2023-04-15T06:14:16;13.10;;;9.13;;
70545;SDS011;58098;51.680;5.134;2023-04-15T06:16:41;16.47;;;9.93;;
70545;SDS011;58098;51.680;5.134;2023-04-15T06:19:07;17.77;;;10.30;;
70545;SDS011;58098;51.680;5.134;2023-04-15T06:21:32;16.17;;;9.83;;
70545;SDS011;58098;51.680;5.134;2023-04-15T06:24:00;14.95;;;9.50;;
70545;SDS011;58098;51.680;5.134;2023-04-15T06:26:26;15.13;;;9.93;;
70545;SDS011;58098;51.680;5.134;2023-04-15T06:28:52;15.90;;;10.27;;
70545;SDS011;58098;51.680;5.134;2023-04-15T06:31:17;16.93;;;9.97;;
70545;SDS011;58098;51.680;5.134;2023-04-15T06:33:43;16.13;;;10.53;;
70545;SDS011;58098;51.680;5.134;2023-04-15T06:36:08;13.70;;;10.07;;
70545;SDS011;58098;51.680;5.134;2023-04-15T06:38:33;13.90;;;9.07;;
70545;SDS011;58098;51.680;5.134;2023-04-15T06:40:59;16.30;;;10.33;;
70545;SDS011;58098;51.680;5.134;2023-04-15T06:43:25;16.50;;;9.88;;
70545;SDS011;58098;51.680;5.134;2023-04-15T06:45:50;13.13;;;9.80;;
70545;SDS011;58098;51.680;5.134;2023-04-15T06:48:15;14.97;;;9.23;;
70545;SDS011;58098;51.680;5.134;2023-04-15T06:50:41;14.50;;;9.52;;
70545;SDS011;58098;51.680;5.134;2023-04-15T06:53:07;16.17;;;9.70;;
70545;SDS011;58098;51.680;5.134;2023-04-15T06:55:32;18.13;;;10.43;;
70545;SDS011;58098;51.680;5.134;2023-04-15T06:57:58;13.50;;;10.07;;
70545;SDS011;58098;51.680;5.134;2023-04-15T07:00:23;14.82;;;9.23;;
70545;SDS011;58098;51.680;5.134;2023-04-15T07:02:49;13.23;;;8.87;;
70545;SDS011;58098;51.680;5.134;2023-04-15T07:05:15;14.85;;;9.45;;
70545;SDS011;58098;51.680;5.134;2023-04-15T07:07:40;15.37;;;9.63;;
70545;SDS011;58098;51.680;5.134;2023-04-15T07:10:06;15.13;;;8.80;;
70545;SDS011;58098;51.680;5.134;2023-04-15T07:12:32;12.70;;;8.50;;
70545;SDS011;58098;51.680;5.134;2023-04-15T07:14:57;14.60;;;9.43;;
70545;SDS011;58098;51.680;5.134;2023-04-15T07:17:23;14.23;;;9.17;;
70545;SDS011;58098;51.680;5.134;2023-04-15T07:19:48;13.13;;;8.73;;
70545;SDS011;58098;51.680;5.134;2023-04-15T07:22:13;18.83;;;9.70;;
70545;SDS011;58098;51.680;5.134;2023-04-15T07:24:39;14.70;;;9.10;;
70545;SDS011;58098;51.680;5.134;2023-04-15T07:27:04;13.07;;;8.98;;
70545;SDS011;58098;51.680;5.134;2023-04-15T07:29:30;12.30;;;8.97;;
70545;SDS011;58098;51.680;5.134;2023-04-15T07:31:55;15.03;;;8.30;;
70545;SDS011;58098;51.680;5.134;2023-04-15T07:34:21;13.83;;;8.83;;
70545;SDS011;58098;51.680;5.134;2023-04-15T07:36:46;15.13;;;9.60;;
70545;SDS011;58098;51.680;5.134;2023-04-15T07:39:16;12.38;;;9.05;;
70545;SDS011;58098;51.680;5.134;2023-04-15T07:41:41;11.35;;;8.60;;
70545;SDS011;58098;51.680;5.134;2023-04-15T07:44:07;14.33;;;9.00;;
70545;SDS011;58098;51.680;5.134;2023-04-15T07:46:33;14.20;;;8.35;;
70545;SDS011;58098;51.680;5.134;2023-04-15T07:48:58;11.97;;;8.67;;
70545;SDS011;58098;51.680;5.134;2023-04-15T07:51:23;10.97;;;8.13;;
70545;SDS011;58098;51.680;5.134;2023-04-15T07:53:49;17.92;;;8.60;;
70545;SDS011;58098;51.680;5.134;2023-04-15T07:56:15;12.73;;;9.23;;
70545;SDS011;58098;51.680;5.134;2023-04-15T07:58:40;13.73;;;9.43;;
70545;SDS011;58098;51.680;5.134;2023-04-15T08:01:06;13.00;;;8.50;;
70545;SDS011;58098;51.680;5.134;2023-04-15T08:03:31;14.93;;;8.97;;
70545;SDS011;58098;51.680;5.134;2023-04-15T08:05:57;11.95;;;7.45;;
70545;SDS011;58098;51.680;5.134;2023-04-15T08:08:23;11.27;;;7.33;;
70545;SDS011;58098;51.680;5.134;2023-04-15T08:10:49;8.73;;;6.60;;
70545;SDS011;58098;51.680;5.134;2023-04-15T08:13:14;12.33;;;6.90;;
70545;SDS011;58098;51.680;5.134;2023-04-15T08:15:40;13.43;;;8.23;;
70545;SDS011;58098;51.680;5.134;2023-04-15T08:18:06;11.60;;;7.90;;
70545;SDS011;58098;51.680;5.134;2023-04-15T08:20:31;10.27;;;7.87;;
70545;SDS011;58098;51.680;5.134;2023-04-15T08:22:57;11.57;;;8.02;;
70545;SDS011;58098;51.680;5.134;2023-04-15T08:25:22;14.87;;;7.70;;
70545;SDS011;58098;51.680;5.134;2023-04-15T08:27:47;12.97;;;7.80;;
70545;SDS011;58098;51.680;5.134;2023-04-15T08:30:13;13.47;;;7.60;;
70545;SDS011;58098;51.680;5.134;2023-04-15T08:32:40;11.07;;;8.32;;
70545;SDS011;58098;51.680;5.134;2023-04-15T08:35:06;11.85;;;7.93;;
70545;SDS011;58098;51.680;5.134;2023-04-15T08:37:32;9.57;;;6.73;;
70545;SDS011;58098;51.680;5.134;2023-04-15T08:39:57;12.70;;;7.77;;
70545;SDS011;58098;51.680;5.134;2023-04-15T08:42:25;12.90;;;7.20;;
70545;SDS011;58098;51.680;5.134;2023-04-15T08:44:55;12.57;;;7.60;;
70545;SDS011;58098;51.680;5.134;2023-04-15T08:47:23;9.88;;;6.20;;
70545;SDS011;58098;51.680;5.134;2023-04-15T08:49:52;12.43;;;7.53;;
70545;SDS011;58098;51.680;5.134;2023-04-15T08:52:19;11.45;;;7.53;;
70545;SDS011;58098;51.680;5.134;2023-04-15T08:54:45;9.85;;;7.38;;
70545;SDS011;58098;51.680;5.134;2023-04-15T08:57:12;8.40;;;6.53;;
70545;SDS011;58098;51.680;5.134;2023-04-15T08:59:38;10.98;;;7.68;;
70545;SDS011;58098;51.680;5.134;2023-04-15T09:02:04;10.77;;;7.03;;
70545;SDS011;58098;51.680;5.134;2023-04-15T09:04:29;9.27;;;6.07;;
70545;SDS011;58098;51.680;5.134;2023-04-15T09:06:55;8.50;;;5.57;;
70545;SDS011;58098;51.680;5.134;2023-04-15T09:09:21;10.17;;;5.47;;
70545;SDS011;58098;51.680;5.134;2023-04-15T09:11:46;7.67;;;4.20;;
70545;SDS011;58098;51.680;5.134;2023-04-15T09:14:13;9.13;;;5.03;;
70545;SDS011;58098;51.680;5.134;2023-04-15T09:16:55;7.80;;;5.67;;
70545;SDS011;58098;51.680;5.134;2023-04-15T09:19:22;9.27;;;4.40;;
70545;SDS011;58098;51.680;5.134;2023-04-15T09:21:49;7.97;;;5.38;;
70545;SDS011;58098;51.680;5.134;2023-04-15T09:24:15;5.55;;;4.30;;
70545;SDS011;58098;51.680;5.134;2023-04-15T09:26:41;14.07;;;4.93;;
70545;SDS011;58098;51.680;5.134;2023-04-15T09:29:07;7.57;;;4.93;;
70545;SDS011;58098;51.680;5.134;2023-04-15T09:31:34;6.68;;;4.70;;
70545;SDS011;58098;51.680;5.134;2023-04-15T09:34:01;6.43;;;4.70;;
70545;SDS011;58098;51.680;5.134;2023-04-15T09:36:26;7.00;;;4.40;;
70545;SDS011;58098;51.680;5.134;2023-04-15T09:38:56;6.78;;;4.80;;
70545;SDS011;58098;51.680;5.134;2023-04-15T09:41:22;5.97;;;4.63;;
70545;SDS011;58098;51.680;5.134;2023-04-15T09:43:48;6.97;;;4.33;;
70545;SDS011;58098;51.680;5.134;2023-04-15T09:46:13;8.23;;;4.60;;
70545;SDS011;58098;51.680;5.134;2023-04-15T09:48:38;8.03;;;4.90;;
70545;SDS011;58098;51.680;5.134;2023-04-15T09:51:04;7.50;;;4.90;;
70545;SDS011;58098;51.680;5.134;2023-04-15T09:53:31;5.72;;;4.57;;
70545;SDS011;58098;51.680;5.134;2023-04-15T09:55:58;6.50;;;4.20;;
70545;SDS011;58098;51.680;5.134;2023-04-15T09:58:30;6.13;;;3.42;;
70545;SDS011;58098;51.680;5.134;2023-04-15T10:00:58;5.25;;;3.90;;
70545;SDS011;58098;51.680;5.134;2023-04-15T10:03:26;6.07;;;4.22;;
70545;SDS011;58098;51.680;5.134;2023-04-15T10:05:53;7.75;;;3.55;;
70545;SDS011;58098;51.680;5.134;2023-04-15T10:08:21;6.60;;;4.20;;
70545;SDS011;58098;51.680;5.134;2023-04-15T10:10:49;6.70;;;4.40;;
70545;SDS011;58098;51.680;5.134;2023-04-15T10:13:16;7.00;;;3.83;;
70545;SDS011;58098;51.680;5.134;2023-04-15T10:15:43;4.53;;;3.22;;
70545;SDS011;58098;51.680;5.134;2023-04-15T10:18:11;4.45;;;3.05;;
70545;SDS011;58098;51.680;5.134;2023-04-15T10:20:40;6.13;;;3.97;;
70545;SDS011;58098;51.680;5.134;2023-04-15T10:23:07;10.07;;;3.72;;
70545;SDS011;58098;51.680;5.134;2023-04-15T10:25:33;5.95;;;3.72;;
70545;SDS011;58098;51.680;5.134;2023-04-15T10:27:59;4.50;;;2.58;;
70545;SDS011;58098;51.680;5.134;2023-04-15T10:30:24;2.83;;;2.07;;
70545;SDS011;58098;51.680;5.134;2023-04-15T10:32:50;4.80;;;2.80;;
70545;SDS011;58098;51.680;5.134;2023-04-15T10:35:16;6.22;;;2.60;;
70545;SDS011;58098;51.680;5.134;2023-04-15T10:37:42;6.43;;;3.05;;
70545;SDS011;58098;51.680;5.134;2023-04-15T10:40:27;3.73;;;2.67;;
70545;SDS011;58098;51.680;5.134;2023-04-15T10:43:01;5.15;;;2.90;;
70545;SDS011;58098;51.680;5.134;2023-04-15T10:45:30;5.22;;;2.85;;
70545;SDS011;58098;51.680;5.134;2023-04-15T10:48:00;4.70;;;2.73;;
70545;SDS011;58098;51.680;5.134;2023-04-15T10:50:27;3.67;;;2.72;;
70545;SDS011;58098;51.680;5.134;2023-04-15T10:52:56;4.68;;;2.88;;
70545;SDS011;58098;51.680;5.134;2023-04-15T10:55:23;4.75;;;3.00;;
70545;SDS011;58098;51.680;5.134;2023-04-15T10:57:59;4.28;;;3.15;;
70545;SDS011;58098;51.680;5.134;2023-04-15T11:00:27;4.97;;;3.10;;
70545;SDS011;58098;51.680;5.134;2023-04-15T11:08:05;4.47;;;3.35;;
70545;SDS011;58098;51.680;5.134;2023-04-15T11:13:01;7.40;;;3.20;;
70545;SDS011;58098;51.680;5.134;2023-04-15T11:15:32;6.63;;;3.60;;
70545;SDS011;58098;51.680;5.134;2023-04-15T11:20:33;3.58;;;2.90;;
70545;SDS011;58098;51.680;5.134;2023-04-15T11:22:58;4.22;;;3.13;;
70545;SDS011;58098;51.680;5.134;2023-04-15T11:25:25;5.43;;;3.33;;
70545;SDS011;58098;51.680;5.134;2023-04-15T11:27:53;5.13;;;3.08;;
70545;SDS011;58098;51.680;5.134;2023-04-15T11:30:23;3.50;;;2.95;;
70545;SDS011;58098;51.680;5.134;2023-04-15T11:32:52;5.53;;;3.17;;
70545;SDS011;58098;51.680;5.134;2023-04-15T11:35:19;4.80;;;2.88;;
70545;SDS011;58098;51.680;5.134;2023-04-15T11:37:45;5.03;;;3.03;;
70545;SDS011;58098;51.680;5.134;2023-04-15T11:40:11;3.20;;;2.87;;
70545;SDS011;58098;51.680;5.134;2023-04-15T11:42:37;4.38;;;2.70;;
70545;SDS011;58098;51.680;5.134;2023-04-15T11:45:06;5.18;;;3.55;;
70545;SDS011;58098;51.680;5.134;2023-04-15T11:47:36;3.97;;;2.97;;
70545;SDS011;58098;51.680;5.134;2023-04-15T11:50:17;5.55;;;3.33;;
70545;SDS011;58098;51.680;5.134;2023-04-15T11:55:19;4.95;;;2.88;;
70545;SDS011;58098;51.680;5.134;2023-04-15T11:57:44;5.00;;;2.60;;
70545;SDS011;58098;51.680;5.134;2023-04-15T12:00:10;2.80;;;2.40;;
70545;SDS011;58098;51.680;5.134;2023-04-15T12:02:38;3.47;;;2.20;;
70545;SDS011;58098;51.680;5.134;2023-04-15T12:05:06;3.38;;;2.50;;
70545;SDS011;58098;51.680;5.134;2023-04-15T12:07:32;3.67;;;3.05;;
70545;SDS011;58098;51.680;5.134;2023-04-15T12:09:58;3.30;;;2.92;;
70545;SDS011;58098;51.680;5.134;2023-04-15T12:12:27;6.23;;;2.70;;
70545;SDS011;58098;51.680;5.134;2023-04-15T12:14:52;4.15;;;3.28;;
70545;SDS011;58098;51.680;5.134;2023-04-15T12:17:20;3.50;;;2.95;;
70545;SDS011;58098;51.680;5.134;2023-04-15T12:19:48;4.13;;;3.07;;
70545;SDS011;58098;51.680;5.134;2023-04-15T12:22:14;4.28;;;3.00;;
70545;SDS011;58098;51.680;5.134;2023-04-15T12:24:41;6.82;;;3.40;;
70545;SDS011;58098;51.680;5.134;2023-04-15T12:27:11;3.22;;;2.47;;
70545;SDS011;58098;51.680;5.134;2023-04-15T12:29:37;5.93;;;2.67;;
70545;SDS011;58098;51.680;5.134;2023-04-15T12:32:22;4.53;;;2.90;;
70545;SDS011;58098;51.680;5.134;2023-04-15T12:34:50;4.30;;;3.40;;
70545;SDS011;58098;51.680;5.134;2023-04-15T12:37:17;4.88;;;3.17;;
70545;SDS011;58098;51.680;5.134;2023-04-15T12:39:43;3.80;;;2.90;;
70545;SDS011;58098;51.680;5.134;2023-04-15T12:42:10;6.55;;;3.50;;
70545;SDS011;58098;51.680;5.134;2023-04-15T12:44:36;4.72;;;3.10;;
70545;SDS011;58098;51.680;5.134;2023-04-15T12:47:03;4.32;;;2.67;;
70545;SDS011;58098;51.680;5.134;2023-04-15T12:49:29;3.57;;;2.93;;
70545;SDS011;58098;51.680;5.134;2023-04-15T12:51:55;3.85;;;2.72;;
70545;SDS011;58098;51.680;5.134;2023-04-15T12:54:23;4.22;;;2.63;;
70545;SDS011;58098;51.680;5.134;2023-04-15T12:56:49;2.37;;;2.17;;
70545;SDS011;58098;51.680;5.134;2023-04-15T12:59:15;4.60;;;2.05;;
70545;SDS011;58098;51.680;5.134;2023-04-15T13:01:45;3.38;;;2.20;;
70545;SDS011;58098;51.680;5.134;2023-04-15T13:04:11;2.63;;;2.42;;
70545;SDS011;58098;51.680;5.134;2023-04-15T13:06:37;4.23;;;2.70;;
70545;SDS011;58098;51.680;5.134;2023-04-15T13:09:02;4.60;;;2.57;;
70545;SDS011;58098;51.680;5.134;2023-04-15T13:11:28;5.03;;;2.90;;
70545;SDS011;58098;51.680;5.134;2023-04-15T13:13:58;4.35;;;2.60;;
70545;SDS011;58098;51.680;5.134;2023-04-15T13:16:28;2.58;;;2.30;;
70545;SDS011;58098;51.680;5.134;2023-04-15T13:18:53;4.20;;;2.60;;
70545;SDS011;58098;51.680;5.134;2023-04-15T13:21:19;5.17;;;2.43;;
70545;SDS011;58098;51.680;5.134;2023-04-15T13:23:44;2.97;;;2.27;;
70545;SDS011;58098;51.680;5.134;2023-04-15T13:26:10;6.17;;;3.80;;
70545;SDS011;58098;51.680;5.134;2023-04-15T13:28:35;3.80;;;2.55;;
70545;SDS011;58098;51.680;5.134;2023-04-15T13:31:01;5.00;;;2.70;;
70545;SDS011;58098;51.680;5.134;2023-04-15T13:33:26;6.73;;;4.03;;
70545;SDS011;58098;51.680;5.134;2023-04-15T13:35:51;5.80;;;2.67;;
70545;SDS011;58098;51.680;5.134;2023-04-15T13:38:17;3.83;;;2.60;;
70545;SDS011;58098;51.680;5.134;2023-04-15T13:40:42;4.43;;;2.30;;
70545;SDS011;58098;51.680;5.134;2023-04-15T13:43:08;2.97;;;2.20;;
70545;SDS011;58098;51.680;5.134;2023-04-15T13:45:34;2.90;;;2.45;;
70545;SDS011;58098;51.680;5.134;2023-04-15T13:47:59;2.47;;;2.10;;
70545;SDS011;58098;51.680;5.134;2023-04-15T13:50:25;5.73;;;2.63;;
70545;SDS011;58098;51.680;5.134;2023-04-15T13:52:50;3.38;;;2.40;;
70545;SDS011;58098;51.680;5.134;2023-04-15T13:55:15;3.53;;;2.50;;
70545;SDS011;58098;51.680;5.134;2023-04-15T13:57:41;4.03;;;1.93;;
70545;SDS011;58098;51.680;5.134;2023-04-15T14:00:06;4.27;;;2.37;;
70545;SDS011;58098;51.680;5.134;2023-04-15T14:02:32;4.95;;;2.08;;
70545;SDS011;58098;51.680;5.134;2023-04-15T14:04:57;4.43;;;2.30;;
70545;SDS011;58098;51.680;5.134;2023-04-15T14:07:23;3.60;;;2.23;;
70545;SDS011;58098;51.680;5.134;2023-04-15T14:09:48;1.83;;;1.73;;
70545;SDS011;58098;51.680;5.134;2023-04-15T14:12:14;5.20;;;2.35;;
70545;SDS011;58098;51.680;5.134;2023-04-15T14:14:39;2.60;;;2.33;;
70545;SDS011;58098;51.680;5.134;2023-04-15T14:17:05;4.90;;;2.60;;
70545;SDS011;58098;51.680;5.134;2023-04-15T14:19:31;4.28;;;2.95;;
70545;SDS011;58098;51.680;5.134;2023-04-15T14:21:57;3.70;;;2.67;;
70545;SDS011;58098;51.680;5.134;2023-04-15T14:24:23;4.38;;;2.30;;
70545;SDS011;58098;51.680;5.134;2023-04-15T14:26:48;4.47;;;2.57;;
70545;SDS011;58098;51.680;5.134;2023-04-15T14:29:13;4.30;;;2.30;;
70545;SDS011;58098;51.680;5.134;2023-04-15T14:31:39;2.80;;;2.40;;
70545;SDS011;58098;51.680;5.134;2023-04-15T14:34:04;3.00;;;2.00;;
70545;SDS011;58098;51.680;5.134;2023-04-15T14:36:30;5.37;;;2.20;;
70545;SDS011;58098;51.680;5.134;2023-04-15T14:38:55;8.40;;;2.20;;
70545;SDS011;58098;51.680;5.134;2023-04-15T14:41:21;3.67;;;2.23;;
70545;SDS011;58098;51.680;5.134;2023-04-15T14:43:47;3.35;;;1.98;;
70545;SDS011;58098;51.680;5.134;2023-04-15T14:46:12;2.73;;;1.90;;